메인 페이지
METAR-TAF:

METAR-TAF

공항 :

오산공군기지

오산, 대한민국

위도: 37-06N, 경도: 127-02E, 고도: 11m

현재 날씨관측

예보는 20분 전, 14:58시(UTC)에 발표되었습니다.
북동4kt
온도 27°C
습도 89%
기압 1005 hPa
시정: 11.3km
고도 20000ft 상공 구름 조금

METAR: RKSO 151458Z 05004KT 7SM FEW200 27/25 A2969 RMK AO2A SLP056 T02740245 403940266 55000 $

시각: 00:18 (15:18 UTC)

예보

예보는 4 시간 18분 전, 11:00시(UTC)에 발표되었습니다.
예보 대상 시간: 15일 11시부터 16일 17시까지 (UTC)
여러 방향의 바람 6kt
시정 10km 이상
고도 8000ft 상공 구름 보통
고도 20000ft 상공 구름 많음
일시적
15일 11시부터 15일 12시까지 (UTC)
여러 방향의 바람 10kt, 순간 최대 풍속 15kt
시정: 8000m
고도 2000ft 상공 구름 많음, 적란운.
뇌우, 약한비
전환 중
15일 13시부터 15일 14시까지 (UTC)
여러 방향의 바람 6kt
시정 10km 이상
고도 5000ft 상공 구름 조금
고도 20000ft 상공 구름 보통
전환 중
16일 03시부터 16일 04시까지 (UTC)
12kt, 순간 최대 풍속 18kt
시정 10km 이상
고도 4000ft 상공 구름 많음

TAF: RKSO 151100Z 1511/1617 VRB06KT 9999 SCT080 BKN200 QNH2962INS TEMPO 1511/1512 VRB10G15KT 8000 -TSRA BKN020CB BECMG 1513/1514 VRB06KT 9999 FEW050 SCT200 QNH2963INS BECMG 1603/1604 08012G18KT 9999 BKN040 QNH2966INS TX39/1606Z TN27/1520Z

4,000개 이상의 공항 관측 자료 및 예보 (METAR 및 TAF 보고).

지도상에서 검색 가능한 기상관측소가 노란 점과 빨간 점으로 표시되어 있습니다.

기상관측소 명을 보려면 표시 위로 마우스를 이동하세요.

날씨 관측과 예보를 보려면 클릭하세요.

지도 변경 : 확대하려면 엑스 표시가 있는 녹색 버튼, 축소하려면 빼기 표시가 있는 녹색 버튼, 다음 페이지의 지도를 보려면 녹색 화살표를 클릭하세요.


METAR-TAF: